createdAt,value
2022-11-17T00:00:49.644Z,97968.88
2022-11-17T00:01:51.248Z,97981.91
2022-11-17T00:02:53.055Z,97990.81
2022-11-17T00:03:54.779Z,98021.84
2022-11-17T00:04:56.333Z,97990.91
2022-11-17T00:06:02.222Z,97988.00
2022-11-17T00:07:03.902Z,97975.03
2022-11-17T00:08:05.641Z,98015.34
2022-11-17T00:09:17.465Z,97998.22
2022-11-17T00:10:19.547Z,97998.03
2022-11-17T00:11:21.329Z,97984.13
2022-11-17T00:12:42.008Z,97970.66
2022-11-17T00:14:02.218Z,97942.06
2022-11-17T00:15:04.109Z,97950.00
2022-11-17T00:16:06.054Z,98004.06
2022-11-17T00:17:11.030Z,97977.63
2022-11-17T00:18:31.443Z,97951.97
2022-11-17T00:19:57.366Z,97986.72
2022-11-17T00:21:17.615Z,97966.59
2022-11-17T00:22:19.857Z,97896.97
2022-11-17T00:23:21.524Z,97954.16
2022-11-17T00:24:24.173Z,97971.28
2022-11-17T00:25:27.903Z,97967.72
2022-11-17T00:26:34.590Z,97869.53
2022-11-17T00:27:36.411Z,97933.59
2022-11-17T00:28:38.226Z,97902.19
2022-11-17T00:29:39.928Z,97923.69
2022-11-17T00:31:00.417Z,97908.78
2022-11-17T00:32:20.627Z,97958.09
2022-11-17T00:33:40.914Z,97903.88
2022-11-17T00:34:42.703Z,97930.25
2022-11-17T00:35:46.002Z,97896.34
2022-11-17T00:36:48.694Z,97942.53
2022-11-17T00:38:08.799Z,97908.22
2022-11-17T00:39:11.737Z,97965.19
2022-11-17T00:40:14.025Z,97956.00
2022-11-17T00:41:15.783Z,97928.47
2022-11-17T00:42:17.432Z,97847.91
2022-11-17T00:43:19.066Z,97942.31
2022-11-17T00:44:21.056Z,97910.31
2022-11-17T00:45:22.666Z,97922.28
2022-11-17T00:46:24.242Z,97927.09
2022-11-17T00:47:25.860Z,97932.31
2022-11-17T00:48:27.522Z,97871.88
2022-11-17T00:49:29.608Z,97923.31
2022-11-17T00:50:33.738Z,97884.41
2022-11-17T00:51:36.231Z,97930.19
2022-11-17T00:52:37.889Z,97846.44
2022-11-17T00:53:39.469Z,97909.84
2022-11-17T00:54:41.086Z,97868.22
2022-11-17T00:55:42.953Z,97884.41
2022-11-17T00:56:44.820Z,97943.78
2022-11-17T00:57:46.457Z,97904.38
2022-11-17T00:58:48.148Z,97896.59
2022-11-17T00:59:49.748Z,97860.19
2022-11-17T01:00:51.505Z,97921.94
2022-11-17T01:01:53.352Z,97934.31
2022-11-17T01:02:57.175Z,97869.06
2022-11-17T01:04:05.408Z,97876.69
2022-11-17T01:05:07.299Z,97968.34
2022-11-17T01:06:11.656Z,97853.41
2022-11-17T01:07:13.303Z,97880.63
2022-11-17T01:08:14.899Z,97896.59
2022-11-17T01:09:19.775Z,97880.44
2022-11-17T01:10:21.302Z,97878.34
2022-11-17T01:11:22.962Z,97925.31
2022-11-17T01:12:24.614Z,97867.81
2022-11-17T01:13:26.178Z,97903.06
2022-11-17T01:14:31.099Z,97899.56
2022-11-17T01:15:34.146Z,97824.75
2022-11-17T01:16:35.794Z,97881.06
2022-11-17T01:17:37.526Z,97857.78
2022-11-17T01:18:39.879Z,97889.16
2022-11-17T01:19:41.433Z,97849.59
2022-11-17T01:20:43.243Z,97827.41
2022-11-17T01:21:45.363Z,97855.44
2022-11-17T01:22:46.896Z,97877.00
2022-11-17T01:23:50.678Z,97812.66
2022-11-17T01:24:52.212Z,97834.22
2022-11-17T01:25:53.879Z,97803.72
2022-11-17T01:26:55.841Z,97848.38
2022-11-17T01:27:57.444Z,97839.66
2022-11-17T01:29:00.656Z,97775.91
2022-11-17T01:30:02.408Z,97802.59
2022-11-17T01:31:11.983Z,97836.88
2022-11-17T01:32:13.660Z,97818.31
2022-11-17T01:33:15.346Z,97795.53
2022-11-17T01:34:17.128Z,97794.69
2022-11-17T01:35:20.942Z,97765.78
2022-11-17T01:36:25.475Z,97826.44
2022-11-17T01:37:27.716Z,97834.03
2022-11-17T01:38:29.965Z,97806.34
2022-11-17T01:39:32.178Z,97811.03
2022-11-17T01:40:36.543Z,97748.19
2022-11-17T01:41:38.849Z,97793.38
2022-11-17T01:42:40.869Z,97799.81
2022-11-17T01:43:46.090Z,97785.66
2022-11-17T01:45:16.718Z,97792.84
2022-11-17T01:46:30.895Z,97795.41
2022-11-17T01:47:50.518Z,97794.59
2022-11-17T01:48:55.925Z,97767.94
2022-11-17T01:50:22.888Z,97779.16
2022-11-17T01:51:25.296Z,97745.59
2022-11-17T01:52:29.360Z,97734.78
2022-11-17T01:53:33.863Z,97751.25
2022-11-17T01:54:40.486Z,97756.59
2022-11-17T01:55:46.906Z,97733.44
2022-11-17T01:56:54.671Z,97759.25
2022-11-17T01:58:21.495Z,97763.56
2022-11-17T01:59:34.596Z,97772.13
2022-11-17T02:00:36.265Z,97777.59
2022-11-17T02:01:56.059Z,97739.44
2022-11-17T02:02:59.001Z,97742.66
2022-11-17T02:04:01.128Z,97711.25
2022-11-17T02:05:28.560Z,97741.94
2022-11-17T02:06:35.337Z,97724.81
2022-11-17T02:07:39.403Z,97755.09
2022-11-17T02:08:45.511Z,97730.28
2022-11-17T02:09:47.711Z,97695.44
2022-11-17T02:10:51.953Z,97740.13
2022-11-17T02:11:57.927Z,97681.88
2022-11-17T02:13:01.515Z,97695.53
2022-11-17T02:14:06.283Z,97708.88
2022-11-17T02:15:09.042Z,97740.03
2022-11-17T02:16:12.713Z,97590.16
2022-11-17T02:17:14.757Z,97713.97
2022-11-17T02:18:17.609Z,97685.78
2022-11-17T02:19:22.369Z,97717.53
2022-11-17T02:21:01.421Z,97733.94
2022-11-17T02:22:09.439Z,97730.19
2022-11-17T02:23:28.943Z,97726.16
2022-11-17T02:25:04.120Z,97737.22
2022-11-17T02:26:39.031Z,97730.47
2022-11-17T02:27:55.483Z,97738.53
2022-11-17T02:29:09.646Z,97723.09
2022-11-17T02:30:15.616Z,97743.50
2022-11-17T02:31:51.335Z,97760.03
2022-11-17T02:33:08.875Z,97750.97
2022-11-17T02:34:40.847Z,97760.09
2022-11-17T02:36:15.222Z,97743.72
2022-11-17T02:37:36.187Z,97761.13
2022-11-17T02:39:20.700Z,97767.59
2022-11-17T02:40:44.027Z,97732.13
2022-11-17T02:42:43.652Z,97755.03
2022-11-17T02:44:05.900Z,97782.25
2022-11-17T02:45:11.376Z,97789.13
2022-11-17T02:46:19.358Z,97734.78
2022-11-17T02:47:28.800Z,97733.00
2022-11-17T02:48:40.113Z,97768.56
2022-11-17T02:49:47.772Z,97762.81
2022-11-17T02:50:50.972Z,97777.13
2022-11-17T02:51:56.381Z,97711.50
2022-11-17T02:52:57.963Z,97711.00
2022-11-17T02:54:00.180Z,97707.69
2022-11-17T02:55:08.807Z,97705.91
2022-11-17T02:56:11.182Z,97751.22
2022-11-17T02:57:29.838Z,97748.34
2022-11-17T02:58:31.468Z,97758.69
2022-11-17T02:59:43.382Z,97733.94
2022-11-17T03:01:03.604Z,97742.88
2022-11-17T03:02:34.426Z,97746.56
2022-11-17T03:03:53.034Z,97730.63
2022-11-17T03:05:09.011Z,97728.97
2022-11-17T03:06:23.505Z,97709.97
2022-11-17T03:07:36.937Z,97721.34
2022-11-17T03:08:50.098Z,97689.94
2022-11-17T03:10:10.373Z,97722.91
2022-11-17T03:11:13.314Z,97630.03
2022-11-17T03:12:22.631Z,97717.59
2022-11-17T03:13:26.457Z,97739.78
2022-11-17T03:14:49.776Z,97688.28
2022-11-17T03:16:02.577Z,97740.50
2022-11-17T03:17:11.223Z,97697.91
2022-11-17T03:18:44.769Z,97757.03
2022-11-17T03:19:55.860Z,97763.78
2022-11-17T03:21:15.110Z,97741.06
2022-11-17T03:22:28.129Z,97709.03
2022-11-17T03:23:41.099Z,97717.75
2022-11-17T03:24:51.200Z,97766.50
2022-11-17T03:25:57.973Z,97717.09
2022-11-17T03:27:23.912Z,97712.84
2022-11-17T03:28:32.779Z,97705.44
2022-11-17T03:29:37.429Z,97783.81
2022-11-17T03:30:42.975Z,97678.50
2022-11-17T03:31:47.453Z,97717.00
2022-11-17T03:32:54.068Z,97745.38
2022-11-17T03:33:56.837Z,97701.50
2022-11-17T03:35:06.799Z,97770.53
2022-11-17T03:36:16.056Z,97753.50
2022-11-17T03:37:21.796Z,97712.16
2022-11-17T03:38:27.841Z,97783.88
2022-11-17T03:39:36.883Z,97755.53
2022-11-17T03:40:43.039Z,97734.72
2022-11-17T03:41:48.461Z,97739.66
2022-11-17T03:42:54.036Z,97748.22
2022-11-17T03:43:57.705Z,97752.50
2022-11-17T03:45:22.039Z,97740.56
2022-11-17T03:46:27.271Z,97685.78
2022-11-17T03:47:32.043Z,97724.63
2022-11-17T03:48:48.753Z,97742.00
2022-11-17T03:49:56.303Z,97748.53
2022-11-17T03:51:16.600Z,97750.91
2022-11-17T03:52:20.433Z,97746.13
2022-11-17T03:53:23.111Z,97717.34
2022-11-17T03:54:25.025Z,97699.03
2022-11-17T03:55:36.901Z,97728.72
2022-11-17T03:56:51.420Z,97743.09
2022-11-17T03:58:05.500Z,97727.22
2022-11-17T03:59:18.644Z,97720.97
2022-11-17T04:00:20.644Z,97737.69
2022-11-17T04:01:25.729Z,97745.47
2022-11-17T04:02:28.410Z,97711.94
2022-11-17T04:03:34.515Z,97714.81
2022-11-17T04:04:55.071Z,97753.97
2022-11-17T04:06:00.531Z,97758.94
2022-11-17T04:07:02.466Z,97778.84
2022-11-17T04:08:04.607Z,97743.09
2022-11-17T04:09:07.481Z,97776.84
2022-11-17T04:10:11.920Z,97768.06
2022-11-17T04:11:32.580Z,97763.53
2022-11-17T04:12:53.362Z,97756.34
2022-11-17T04:14:13.370Z,97761.06
2022-11-17T04:15:34.167Z,97730.38
2022-11-17T04:16:36.325Z,97797.00
2022-11-17T04:17:38.058Z,97766.72
2022-11-17T04:18:39.642Z,97817.06
2022-11-17T04:19:41.321Z,97762.00
2022-11-17T04:20:43.249Z,97740.66
2022-11-17T04:21:47.531Z,97733.16
2022-11-17T04:23:07.446Z,97724.44
2022-11-17T04:24:09.263Z,97744.63
2022-11-17T04:25:31.008Z,97746.50
2022-11-17T04:26:51.279Z,97732.97
2022-11-17T04:28:11.474Z,97769.50
2022-11-17T04:29:13.135Z,97757.06
2022-11-17T04:30:14.920Z,97735.31
2022-11-17T04:31:24.087Z,97751.78
2022-11-17T04:32:25.710Z,97773.09
2022-11-17T04:33:27.385Z,97767.78
2022-11-17T04:34:29.083Z,97729.56
2022-11-17T04:35:31.068Z,97766.94
2022-11-17T04:36:36.467Z,97747.78
2022-11-17T04:37:38.308Z,97731.22
2022-11-17T04:38:47.954Z,97683.88
2022-11-17T04:39:49.540Z,97734.69
2022-11-17T04:41:10.198Z,97699.19
2022-11-17T04:42:14.608Z,97745.53
2022-11-17T04:43:16.485Z,97754.00
2022-11-17T04:44:18.990Z,97729.16
2022-11-17T04:45:20.523Z,97744.84
2022-11-17T04:46:23.647Z,97731.88
2022-11-17T04:47:28.057Z,97728.63
2022-11-17T04:48:29.694Z,97713.88
2022-11-17T04:49:32.178Z,97672.97
2022-11-17T04:50:34.072Z,97694.22
2022-11-17T04:51:36.695Z,97694.53
2022-11-17T04:52:43.161Z,97713.16
2022-11-17T04:53:45.291Z,97670.84
2022-11-17T04:54:46.905Z,97693.16
2022-11-17T04:55:48.493Z,97677.94
2022-11-17T04:56:50.574Z,97686.22
2022-11-17T04:57:52.249Z,97691.44
2022-11-17T04:58:54.489Z,97682.56
2022-11-17T04:59:56.084Z,97707.66
2022-11-17T05:01:12.192Z,97679.91
2022-11-17T05:02:13.792Z,97701.34
2022-11-17T05:03:15.505Z,97704.78
2022-11-17T05:04:38.871Z,97703.81
2022-11-17T05:05:40.591Z,97691.19
2022-11-17T05:06:44.950Z,97682.84
2022-11-17T05:07:46.467Z,97682.34
2022-11-17T05:08:48.210Z,97676.25
2022-11-17T05:09:49.833Z,97725.88
2022-11-17T05:11:09.981Z,97713.75
2022-11-17T05:12:44.235Z,97703.63
2022-11-17T05:13:45.847Z,97641.09
2022-11-17T05:14:49.180Z,97703.44
2022-11-17T05:16:16.115Z,97701.72
2022-11-17T05:17:18.049Z,97696.03
2022-11-17T05:18:19.780Z,97647.72
2022-11-17T05:19:24.017Z,97650.00
2022-11-17T05:20:25.597Z,97631.47
2022-11-17T05:21:27.141Z,97668.31
2022-11-17T05:22:47.783Z,97673.13
2022-11-17T05:23:55.411Z,97650.03
2022-11-17T05:24:57.439Z,97653.78
2022-11-17T05:25:58.979Z,97690.03
2022-11-17T05:27:00.576Z,97660.38
2022-11-17T05:28:02.101Z,97692.63
2022-11-17T05:29:05.836Z,97710.78
2022-11-17T05:30:09.061Z,97710.41
2022-11-17T05:31:10.958Z,97701.38
2022-11-17T05:32:12.575Z,97695.81
2022-11-17T05:33:16.672Z,97722.63
2022-11-17T05:34:18.317Z,97712.38
2022-11-17T05:35:19.997Z,97634.13
2022-11-17T05:36:23.035Z,97671.09
2022-11-17T05:37:26.944Z,97714.34
2022-11-17T05:38:28.588Z,97697.91
2022-11-17T05:39:30.164Z,97673.78
2022-11-17T05:40:31.743Z,97737.88
2022-11-17T05:41:33.845Z,97715.28
2022-11-17T05:42:38.513Z,97737.38
2022-11-17T05:43:40.341Z,97673.50
2022-11-17T05:44:45.631Z,97703.59
2022-11-17T05:45:49.650Z,97701.69
2022-11-17T05:46:51.333Z,97698.84
2022-11-17T05:47:53.225Z,97743.56
2022-11-17T05:48:55.156Z,97633.50
2022-11-17T05:49:56.835Z,97717.41
2022-11-17T05:50:58.442Z,97704.28
2022-11-17T05:52:00.226Z,97727.09
2022-11-17T05:53:04.812Z,97669.69
2022-11-17T05:54:06.444Z,97690.53
2022-11-17T05:55:08.466Z,97714.19
2022-11-17T05:56:28.518Z,97732.34
2022-11-17T05:57:33.852Z,97720.56
2022-11-17T05:58:39.544Z,97674.31
2022-11-17T05:59:46.417Z,97678.94
2022-11-17T06:00:58.383Z,97685.53
2022-11-17T06:02:15.089Z,97708.81
2022-11-17T06:03:25.190Z,97688.41
2022-11-17T06:04:26.996Z,97689.84
2022-11-17T06:05:31.125Z,97658.69
2022-11-17T06:06:37.343Z,97725.63
2022-11-17T06:07:40.792Z,97706.03
2022-11-17T06:08:42.970Z,97740.94
2022-11-17T06:09:46.082Z,97686.75
2022-11-17T06:10:47.761Z,97719.13
2022-11-17T06:11:49.358Z,97736.59
2022-11-17T06:12:51.069Z,97706.00
2022-11-17T06:13:52.600Z,97735.16
2022-11-17T06:14:54.378Z,97699.34
2022-11-17T06:15:59.594Z,97713.59
2022-11-17T06:17:06.689Z,97746.19
2022-11-17T06:18:14.059Z,97711.44
2022-11-17T06:19:23.622Z,97725.75
2022-11-17T06:20:30.212Z,97703.03
2022-11-17T06:21:49.466Z,97704.75
2022-11-17T06:22:57.957Z,97736.88
2022-11-17T06:24:00.265Z,97701.88
2022-11-17T06:25:04.599Z,97685.81
2022-11-17T06:26:11.191Z,97689.50
2022-11-17T06:27:17.984Z,97711.16
2022-11-17T06:28:22.468Z,97708.03
2022-11-17T06:29:24.613Z,97686.03
2022-11-17T06:30:27.245Z,97629.00
2022-11-17T06:31:28.917Z,97662.25
2022-11-17T06:32:32.865Z,97662.13
2022-11-17T06:33:38.538Z,97648.25
2022-11-17T06:34:41.163Z,97589.47
2022-11-17T06:35:45.425Z,97681.69
2022-11-17T06:36:49.964Z,97672.09
2022-11-17T06:37:51.670Z,97685.09
2022-11-17T06:38:53.226Z,97709.00
2022-11-17T06:39:57.150Z,97730.72
2022-11-17T06:40:58.674Z,97719.41
2022-11-17T06:42:00.244Z,97748.56
2022-11-17T06:43:08.321Z,97730.19
2022-11-17T06:44:12.016Z,97720.38
2022-11-17T06:45:16.373Z,97708.03
2022-11-17T06:46:19.178Z,97676.34
2022-11-17T06:47:22.330Z,97658.63
2022-11-17T06:48:27.131Z,97675.03
2022-11-17T06:49:31.724Z,97717.94
2022-11-17T06:50:53.645Z,97724.63
2022-11-17T06:51:58.368Z,97602.84
2022-11-17T06:53:02.289Z,97721.13
2022-11-17T06:54:09.052Z,97653.56
2022-11-17T06:55:10.913Z,97693.47
2022-11-17T06:56:13.781Z,97676.06
2022-11-17T06:57:15.469Z,97684.31
2022-11-17T06:58:19.853Z,97706.06
2022-11-17T06:59:24.958Z,97608.88
2022-11-17T07:00:27.953Z,97675.25
2022-11-17T07:01:32.082Z,97707.72
2022-11-17T07:02:37.303Z,97688.88
2022-11-17T07:03:41.681Z,97681.41
2022-11-17T07:04:46.500Z,97772.75
2022-11-17T07:05:50.768Z,97786.50
2022-11-17T07:06:55.414Z,97646.53
2022-11-17T07:08:04.792Z,97689.97
2022-11-17T07:09:07.124Z,97638.13
2022-11-17T07:10:12.023Z,97616.63
2022-11-17T07:11:17.486Z,97723.56
2022-11-17T07:12:19.604Z,97739.13
2022-11-17T07:13:25.082Z,97731.38
2022-11-17T07:14:26.804Z,97773.44
2022-11-17T07:15:32.518Z,97761.44
2022-11-17T07:16:34.165Z,97733.34
2022-11-17T07:17:35.877Z,97690.22
2022-11-17T07:18:38.832Z,97725.25
2022-11-17T07:19:41.051Z,97724.25
2022-11-17T07:20:43.032Z,97777.94
2022-11-17T07:21:44.674Z,97741.81
2022-11-17T07:22:47.197Z,97773.25
2022-11-17T07:23:49.884Z,97780.59
2022-11-17T07:24:53.049Z,97711.25
2022-11-17T07:25:54.959Z,97734.66
2022-11-17T07:26:56.565Z,97742.00
2022-11-17T07:27:59.603Z,97730.09
2022-11-17T07:29:04.336Z,97776.97
2022-11-17T07:30:07.462Z,97779.94
2022-11-17T07:31:09.679Z,97700.88
2022-11-17T07:32:13.837Z,97735.59
2022-11-17T07:33:15.654Z,97754.16
2022-11-17T07:34:17.247Z,97777.72
2022-11-17T07:35:21.120Z,97759.69
2022-11-17T07:36:22.956Z,97758.88
2022-11-17T07:37:24.551Z,97750.16
2022-11-17T07:38:26.174Z,97730.50
2022-11-17T07:39:27.821Z,97715.13
2022-11-17T07:40:31.102Z,97757.22
2022-11-17T07:41:36.051Z,97761.63
2022-11-17T07:42:37.843Z,97688.69
2022-11-17T07:43:40.410Z,97743.94
2022-11-17T07:44:42.292Z,97706.97
2022-11-17T07:45:46.950Z,97772.72
2022-11-17T07:46:51.371Z,97808.47
2022-11-17T07:47:57.506Z,97675.44
2022-11-17T07:48:59.281Z,97746.97
2022-11-17T07:50:04.328Z,97774.69
2022-11-17T07:51:08.561Z,97754.88
2022-11-17T07:52:10.534Z,97783.34
2022-11-17T07:53:19.264Z,97717.38
2022-11-17T07:54:28.206Z,97722.31
2022-11-17T07:55:32.767Z,97743.25
2022-11-17T07:56:37.742Z,97772.84
2022-11-17T07:57:42.617Z,97692.44
2022-11-17T07:58:44.452Z,97723.56
2022-11-17T07:59:46.275Z,97754.41
2022-11-17T08:00:50.824Z,97796.09
2022-11-17T08:01:52.930Z,97725.59
2022-11-17T08:02:55.331Z,97750.56
2022-11-17T08:03:57.995Z,97745.69
2022-11-17T08:05:02.329Z,97712.09
2022-11-17T08:06:07.962Z,97800.03
2022-11-17T08:07:19.449Z,97766.91
2022-11-17T08:08:32.642Z,97728.41
2022-11-17T08:09:40.365Z,97730.63
2022-11-17T08:10:43.234Z,97738.81
2022-11-17T08:11:45.104Z,97719.56
2022-11-17T08:12:55.963Z,97741.72
2022-11-17T08:13:58.847Z,97784.97
2022-11-17T08:15:03.806Z,97796.75
2022-11-17T08:16:06.870Z,97772.69
2022-11-17T08:17:09.077Z,97796.19
2022-11-17T08:18:14.525Z,97671.66
2022-11-17T08:19:18.616Z,97757.69
2022-11-17T08:20:27.775Z,97753.72
2022-11-17T08:21:29.527Z,97740.91
2022-11-17T08:22:34.055Z,97813.66
2022-11-17T08:23:38.811Z,97767.41
2022-11-17T08:24:54.624Z,97753.53
2022-11-17T08:26:04.763Z,97756.75
2022-11-17T08:27:28.243Z,97846.25
2022-11-17T08:28:31.844Z,97783.59
2022-11-17T08:29:33.793Z,97755.50
2022-11-17T08:30:40.199Z,97791.44
2022-11-17T08:31:48.377Z,97792.78
2022-11-17T08:33:07.939Z,97782.94
2022-11-17T08:34:17.625Z,97764.34
2022-11-17T08:35:22.384Z,97708.19
2022-11-17T08:36:26.480Z,97861.34
2022-11-17T08:37:31.806Z,97706.09
2022-11-17T08:38:36.979Z,97754.81
2022-11-17T08:39:46.399Z,97855.03
2022-11-17T08:40:49.470Z,97862.97
2022-11-17T08:41:54.295Z,97728.31
2022-11-17T08:43:00.673Z,97815.44
2022-11-17T08:44:03.543Z,97793.00
2022-11-17T08:45:06.533Z,97781.63
2022-11-17T08:46:12.835Z,97849.31
2022-11-17T08:47:16.942Z,97779.59
2022-11-17T08:48:19.216Z,97756.88
2022-11-17T08:49:26.772Z,97676.31
2022-11-17T08:50:33.608Z,97793.38
2022-11-17T08:51:37.907Z,97735.75
2022-11-17T08:52:42.008Z,97778.75
2022-11-17T08:53:46.892Z,97850.19
2022-11-17T08:55:00.130Z,97761.78
2022-11-17T08:56:09.413Z,97774.91
2022-11-17T08:57:14.068Z,97838.88
2022-11-17T08:58:23.599Z,97884.16
2022-11-17T08:59:34.696Z,97804.50
2022-11-17T09:00:36.732Z,97763.25
2022-11-17T09:01:40.798Z,97862.31
2022-11-17T09:02:46.501Z,97809.78
2022-11-17T09:03:48.927Z,97720.47
2022-11-17T09:04:50.959Z,97693.59
2022-11-17T09:05:55.667Z,97789.94
2022-11-17T09:07:00.207Z,97775.78
2022-11-17T09:08:29.661Z,97851.97
2022-11-17T09:09:30.096Z,97814.41
2022-11-17T09:10:32.365Z,97862.44
2022-11-17T09:11:46.157Z,97826.84
2022-11-17T09:12:50.845Z,97734.59
2022-11-17T09:14:04.272Z,97814.34
2022-11-17T09:15:09.254Z,97746.50
2022-11-17T09:16:11.934Z,97782.91
2022-11-17T09:17:13.710Z,97862.44
2022-11-17T09:18:18.519Z,97793.00
2022-11-17T09:19:20.353Z,97827.66
2022-11-17T09:20:22.672Z,97787.75
2022-11-17T09:21:26.336Z,97868.16
2022-11-17T09:22:28.660Z,97865.41
2022-11-17T09:23:31.775Z,97854.09
2022-11-17T09:24:33.539Z,97864.84
2022-11-17T09:25:36.691Z,97881.22
2022-11-17T09:26:41.247Z,97841.81
2022-11-17T09:27:43.045Z,97838.50
2022-11-17T09:28:45.279Z,97879.13
2022-11-17T09:29:54.304Z,97874.31
2022-11-17T09:30:55.957Z,97884.91
2022-11-17T09:31:57.828Z,97778.81
2022-11-17T09:32:59.440Z,97847.34
2022-11-17T09:34:05.281Z,97905.44
2022-11-17T09:35:09.437Z,97885.22
2022-11-17T09:36:12.583Z,97862.50
2022-11-17T09:37:14.320Z,97833.78
2022-11-17T09:38:16.419Z,97850.84
2022-11-17T09:39:18.561Z,97904.50
2022-11-17T09:40:24.535Z,97888.06
2022-11-17T09:41:44.914Z,97866.34
2022-11-17T09:42:50.487Z,97846.97
2022-11-17T09:44:03.881Z,97942.53
2022-11-17T09:45:20.945Z,97874.31
2022-11-17T09:46:31.990Z,97911.97
2022-11-17T09:48:12.412Z,97905.50
2022-11-17T09:49:37.578Z,97884.06
2022-11-17T09:50:40.827Z,97883.25
2022-11-17T09:51:47.822Z,97881.97
2022-11-17T09:52:54.224Z,97902.22
2022-11-17T09:54:12.287Z,97898.91
2022-11-17T09:55:41.042Z,97885.34
2022-11-17T09:56:47.586Z,97843.47
2022-11-17T09:58:27.649Z,97857.91
2022-11-17T09:59:35.678Z,97769.59
2022-11-17T10:00:45.996Z,97864.56
2022-11-17T10:01:53.764Z,97831.34
2022-11-17T10:03:11.085Z,97827.78
2022-11-17T10:04:38.975Z,97840.03
2022-11-17T10:05:44.248Z,97758.03
2022-11-17T10:06:50.521Z,97894.34
2022-11-17T10:07:55.621Z,97909.72
2022-11-17T10:09:15.258Z,97889.91
2022-11-17T10:10:22.581Z,97862.75
2022-11-17T10:11:36.608Z,97895.13
2022-11-17T10:12:47.609Z,97880.50
2022-11-17T10:13:50.853Z,97886.34
2022-11-17T10:14:54.411Z,97904.56
2022-11-17T10:16:05.546Z,97846.53
2022-11-17T10:17:10.765Z,97817.31
2022-11-17T10:18:17.345Z,97903.63
2022-11-17T10:19:20.260Z,97910.97
2022-11-17T10:20:25.263Z,97892.25
2022-11-17T10:21:30.821Z,97815.09
2022-11-17T10:22:37.071Z,97914.25
2022-11-17T10:23:47.878Z,97787.56
2022-11-17T10:24:56.729Z,97867.78
2022-11-17T10:26:01.433Z,97847.63
2022-11-17T10:27:19.207Z,97917.13
2022-11-17T10:28:34.425Z,97905.34
2022-11-17T10:29:36.029Z,97848.44
2022-11-17T10:30:38.968Z,97913.63
2022-11-17T10:31:46.446Z,97897.66
2022-11-17T10:32:53.770Z,97902.69
2022-11-17T10:33:55.673Z,97787.38
2022-11-17T10:35:13.929Z,97918.75
2022-11-17T10:36:32.809Z,97906.53
2022-11-17T10:37:34.580Z,97905.78
2022-11-17T10:38:36.461Z,97914.84
2022-11-17T10:39:40.361Z,97856.38
2022-11-17T10:40:41.994Z,97920.13
2022-11-17T10:41:50.520Z,97931.75
2022-11-17T10:43:28.990Z,97864.44
2022-11-17T10:44:33.823Z,97917.72
2022-11-17T10:45:35.477Z,97900.56
2022-11-17T10:47:00.562Z,97861.38
2022-11-17T10:48:37.692Z,97847.44
2022-11-17T10:49:39.834Z,97925.47
2022-11-17T10:50:55.864Z,97910.81
2022-11-17T10:52:18.629Z,97919.22
2022-11-17T10:53:36.884Z,97888.72
2022-11-17T10:54:41.499Z,97899.00
2022-11-17T10:55:44.513Z,97908.06
2022-11-17T10:56:55.579Z,97898.75
2022-11-17T10:58:29.413Z,97920.66
2022-11-17T10:59:44.104Z,97794.03
2022-11-17T11:00:54.089Z,97918.69
2022-11-17T11:01:56.111Z,97910.81
2022-11-17T11:03:15.901Z,97878.94
2022-11-17T11:04:35.799Z,97903.59
2022-11-17T11:05:37.466Z,97918.44
2022-11-17T11:06:39.049Z,97898.50
2022-11-17T11:07:41.194Z,97847.09
2022-11-17T11:08:56.973Z,97946.72
2022-11-17T11:10:17.096Z,97908.19
2022-11-17T11:11:43.737Z,97950.03
2022-11-17T11:12:54.193Z,97888.53
2022-11-17T11:14:12.326Z,97914.84
2022-11-17T11:15:24.296Z,97964.44
2022-11-17T11:16:29.459Z,97926.47
2022-11-17T11:17:31.194Z,97877.69
2022-11-17T11:18:32.950Z,97912.72
2022-11-17T11:19:34.780Z,97900.94
2022-11-17T11:21:01.765Z,97935.28
2022-11-17T11:22:19.843Z,97903.59
2022-11-17T11:23:31.876Z,97938.94
2022-11-17T11:24:58.749Z,97935.16
2022-11-17T11:26:03.394Z,97927.00
2022-11-17T11:27:16.277Z,97939.88
2022-11-17T11:28:26.808Z,97937.56
2022-11-17T11:29:59.609Z,97942.88
2022-11-17T11:31:30.162Z,97926.03
2022-11-17T11:33:00.210Z,97940.06
2022-11-17T11:34:19.887Z,97931.31
2022-11-17T11:35:45.044Z,97857.03
2022-11-17T11:36:55.742Z,97900.13
2022-11-17T11:38:21.776Z,97918.28
2022-11-17T11:39:29.110Z,97923.56
2022-11-17T11:40:39.423Z,97899.72
2022-11-17T11:42:08.103Z,97903.19
2022-11-17T11:43:46.612Z,97900.84
2022-11-17T11:44:54.128Z,97941.28
2022-11-17T11:46:01.475Z,97928.56
2022-11-17T11:47:40.360Z,97927.56
2022-11-17T11:48:41.993Z,97945.94
2022-11-17T11:49:54.284Z,97939.16
2022-11-17T11:50:58.975Z,97956.31
2022-11-17T11:52:04.589Z,97939.63
2022-11-17T11:53:24.496Z,97922.56
2022-11-17T11:54:49.399Z,97952.75
2022-11-17T11:56:15.697Z,97951.31
2022-11-17T11:57:21.049Z,97926.13
2022-11-17T11:58:24.714Z,97919.66
2022-11-17T12:00:04.031Z,97940.50
2022-11-17T12:01:09.639Z,97936.94
2022-11-17T12:02:11.363Z,97942.44
2022-11-17T12:03:33.753Z,97906.34
2022-11-17T12:05:04.438Z,97946.06
2022-11-17T12:06:41.261Z,97869.44
2022-11-17T12:08:04.673Z,97929.03
2022-11-17T12:09:15.583Z,97938.63
2022-11-17T12:10:26.938Z,97892.09
2022-11-17T12:11:47.490Z,97902.00
2022-11-17T12:12:49.642Z,97845.16
2022-11-17T12:13:54.286Z,97926.19
2022-11-17T12:15:31.420Z,97856.34
2022-11-17T12:16:36.132Z,97877.44
2022-11-17T12:17:54.068Z,97852.34
2022-11-17T12:18:55.832Z,97929.78
2022-11-17T12:20:09.219Z,97892.13
2022-11-17T12:21:13.770Z,97879.59
2022-11-17T12:22:35.812Z,97905.28
2022-11-17T12:23:55.489Z,97889.34
2022-11-17T12:24:58.983Z,97847.78
2022-11-17T12:26:02.356Z,97912.47
2022-11-17T12:27:35.575Z,97912.34
2022-11-17T12:28:41.076Z,97940.59
2022-11-17T12:29:47.272Z,97915.66
2022-11-17T12:30:51.800Z,97877.72
2022-11-17T12:32:02.253Z,97900.69
2022-11-17T12:33:09.060Z,97924.97
2022-11-17T12:34:38.235Z,97844.28
2022-11-17T12:35:40.392Z,97905.91
2022-11-17T12:36:44.330Z,97919.34
2022-11-17T12:37:46.237Z,97876.13
2022-11-17T12:38:48.127Z,97829.00
2022-11-17T12:40:04.854Z,97879.59
2022-11-17T12:41:17.362Z,97825.44
2022-11-17T12:42:19.049Z,97825.44
2022-11-17T12:43:27.843Z,97883.06
2022-11-17T12:44:37.724Z,97896.53
2022-11-17T12:45:58.182Z,97887.66
2022-11-17T12:47:21.633Z,97837.00
2022-11-17T12:48:34.803Z,97790.72
2022-11-17T12:49:58.669Z,97822.31
2022-11-17T12:51:15.708Z,97877.00
2022-11-17T12:52:38.548Z,97848.75
2022-11-17T12:53:49.376Z,97899.16
2022-11-17T12:55:13.035Z,97929.53
2022-11-17T12:56:55.069Z,97869.53
2022-11-17T12:58:25.580Z,97887.97
2022-11-17T12:59:44.952Z,97880.22
2022-11-17T13:01:08.420Z,97874.25
2022-11-17T13:02:53.416Z,97800.97
2022-11-17T13:04:17.975Z,97820.53
2022-11-17T13:05:26.951Z,97856.41
2022-11-17T13:06:36.390Z,97893.97
2022-11-17T13:07:38.571Z,97873.59
2022-11-17T13:08:41.083Z,97874.13
2022-11-17T13:09:49.214Z,97866.50
2022-11-17T13:10:51.266Z,97878.47
2022-11-17T13:12:23.313Z,97906.69
2022-11-17T13:13:25.112Z,97868.28
2022-11-17T13:14:27.646Z,97927.53
2022-11-17T13:15:29.492Z,97858.06
2022-11-17T13:16:31.179Z,97871.78
2022-11-17T13:17:43.705Z,97898.97
2022-11-17T13:18:46.899Z,97888.72
2022-11-17T13:19:58.247Z,97890.88
2022-11-17T13:21:03.261Z,97864.09
2022-11-17T13:22:11.108Z,97894.19
2022-11-17T13:23:19.944Z,97863.69